Time;durP1;ratioP1;P1;durP2;ratioP2;P2;SDS_P1;SDS_P2;PMS_P1;PMS_P2;Temp;Humidity;BMP_temperature;BMP_pressure;BME280_temperature;BME280_humidity;BME280_pressure;Samples;Min_cycle;Max_cycle;Signal;HPM_P1;HPM_P2
2021/03/11 00:00:53;;;;;;;11.73;8.00;;;0.30;57.30;;;;;;5028432;28;20025;-53
2021/03/11 00:03:21;;;;;;;10.55;8.13;;;0.30;57.30;;;;;;5033049;28;20028;-55
2021/03/11 00:05:47;;;;;;;11.48;7.20;;;0.30;57.20;;;;;;5034444;28;20071;-53
2021/03/11 00:08:13;;;;;;;14.63;8.57;;;0.30;57.30;;;;;;5034697;28;20548;-53
2021/03/11 00:10:40;;;;;;;13.10;8.27;;;0.30;57.20;;;;;;5024447;28;20033;-53
2021/03/11 00:13:07;;;;;;;12.40;8.20;;;0.30;57.40;;;;;;5034816;28;20036;-53
2021/03/11 00:15:34;;;;;;;11.40;8.48;;;0.30;57.30;;;;;;5034551;28;20029;-56
2021/03/11 00:18:00;;;;;;;12.95;8.60;;;0.30;57.20;;;;;;5031557;28;20029;-55
2021/03/11 00:20:27;;;;;;;12.15;7.90;;;0.30;57.20;;;;;;5034421;28;20527;-57
2021/03/11 00:22:54;;;;;;;11.15;7.38;;;0.30;57.30;;;;;;5034384;28;20023;-54
2021/03/11 00:25:22;;;;;;;10.10;7.68;;;0.30;57.30;;;;;;5031883;28;20109;-54
2021/03/11 00:27:48;;;;;;;9.48;7.05;;;0.30;57.30;;;;;;5034187;28;20253;-52
2021/03/11 00:30:15;;;;;;;11.77;8.00;;;0.30;57.10;;;;;;5033388;28;20033;-53
2021/03/11 00:32:41;;;;;;;12.30;6.95;;;0.30;57.10;;;;;;5032983;28;20041;-53
2021/03/11 00:35:09;;;;;;;10.75;7.53;;;0.30;57.00;;;;;;5028464;28;20034;-53
2021/03/11 00:37:35;;;;;;;10.52;7.03;;;0.30;57.00;;;;;;5026283;28;20060;-53
2021/03/11 00:40:03;;;;;;;12.60;8.18;;;0.20;57.10;;;;;;5033023;28;20021;-56
2021/03/11 00:42:28;;;;;;;12.27;8.30;;;0.20;57.00;;;;;;5021154;28;20030;-52
2021/03/11 00:44:54;;;;;;;13.85;8.55;;;0.20;57.80;;;;;;5029849;28;20035;-53
2021/03/11 00:47:20;;;;;;;11.05;8.02;;;0.20;57.10;;;;;;5031128;28;20044;-52
2021/03/11 00:49:46;;;;;;;12.07;7.80;;;0.20;57.10;;;;;;5019583;28;20062;-53
2021/03/11 00:52:14;;;;;;;11.52;7.85;;;0.20;57.20;;;;;;5032301;28;20033;-57
2021/03/11 00:54:40;;;;;;;12.52;8.73;;;0.10;57.30;;;;;;5033981;28;20485;-56
2021/03/11 00:57:06;;;;;;;12.73;7.55;;;0.10;57.40;;;;;;5033167;28;20045;-57
2021/03/11 00:59:32;;;;;;;10.18;7.68;;;0.10;58.10;;;;;;5030114;28;20355;-54
2021/03/11 01:01:58;;;;;;;11.90;8.35;;;0.10;57.50;;;;;;5022703;28;20037;-54
2021/03/11 01:04:24;;;;;;;11.75;7.68;;;0.10;57.30;;;;;;5032695;28;20029;-54
2021/03/11 01:06:49;;;;;;;10.70;8.27;;;0.10;57.50;;;;;;5033686;28;20469;-55
2021/03/11 01:09:15;;;;;;;11.00;8.07;;;0.10;57.50;;;;;;5030603;28;20037;-56
2021/03/11 01:11:40;;;;;;;11.55;7.68;;;0.10;57.60;;;;;;5024778;28;20026;-53
2021/03/11 01:14:07;;;;;;;10.70;7.32;;;0.00;57.60;;;;;;5033345;28;20049;-54
2021/03/11 01:16:32;;;;;;;12.95;8.75;;;0.00;57.50;;;;;;5030812;28;20033;-54
2021/03/11 01:18:58;;;;;;;13.52;7.95;;;0.00;57.50;;;;;;5032304;28;20092;-57
2021/03/11 01:21:24;;;;;;;13.02;8.75;;;0.00;57.70;;;;;;5031519;28;20041;-53
2021/03/11 01:23:49;;;;;;;12.88;8.27;;;0.00;57.60;;;;;;5033210;28;20049;-55
2021/03/11 01:26:15;;;;;;;11.38;8.18;;;0.00;57.70;;;;;;5032606;28;20033;-57
2021/03/11 01:28:41;;;;;;;12.45;8.77;;;0.00;57.70;;;;;;5033132;28;20079;-56
2021/03/11 01:31:06;;;;;;;15.98;9.15;;;0.00;57.70;;;;;;5026023;28;20418;-56
2021/03/11 01:33:32;;;;;;;12.65;8.15;;;0.00;57.80;;;;;;5033325;28;20082;-54
2021/03/11 01:35:58;;;;;;;11.23;8.43;;;0.00;57.80;;;;;;5031486;28;20112;-56
2021/03/11 01:38:23;;;;;;;12.73;7.95;;;0.00;57.80;;;;;;5023731;28;20076;-56
2021/03/11 01:40:49;;;;;;;13.70;8.20;;;0.00;57.70;;;;;;5030222;28;20038;-56
2021/03/11 01:43:15;;;;;;;11.23;7.97;;;0.00;57.60;;;;;;5033185;28;20076;-55
2021/03/11 01:45:42;;;;;;;13.63;8.63;;;0.00;57.70;;;;;;5032885;28;20025;-57
2021/03/11 01:48:08;;;;;;;12.20;9.23;;;0.00;57.60;;;;;;5031400;28;20040;-55
2021/03/11 01:50:34;;;;;;;13.30;8.60;;;0.00;57.60;;;;;;5030762;28;20042;-54
2021/03/11 01:53:00;;;;;;;11.30;7.30;;;0.00;57.60;;;;;;5031402;28;20041;-54
2021/03/11 01:55:27;;;;;;;13.13;8.43;;;0.00;57.70;;;;;;5032801;28;20029;-56
2021/03/11 01:57:54;;;;;;;12.32;8.57;;;0.00;57.70;;;;;;5030964;28;20033;-54
2021/03/11 02:00:20;;;;;;;14.23;8.35;;;0.00;57.70;;;;;;5030138;28;20029;-53
2021/03/11 02:02:46;;;;;;;13.00;7.88;;;0.00;57.80;;;;;;5032892;28;20068;-55
2021/03/11 02:05:16;;;;;;;13.82;8.48;;;0.00;57.90;;;;;;5032788;28;20028;-57
2021/03/11 02:07:43;;;;;;;13.00;8.73;;;0.00;57.80;;;;;;5033132;28;20097;-57
2021/03/11 02:10:11;;;;;;;12.95;8.73;;;0.00;58.00;;;;;;5029371;28;20039;-56
2021/03/11 02:12:58;;;;;;;11.60;8.25;;;0.00;58.00;;;;;;5024546;28;20124;-54
2021/03/11 02:15:30;;;;;;;15.23;9.35;;;0.00;58.10;;;;;;5030814;28;20381;-57
2021/03/11 02:18:14;;;;;;;;;;;0.00;57.90;;;;;;5032228;28;20056;-54
2021/03/11 02:20:49;;;;;;;11.23;7.53;;;-0.10;58.10;;;;;;5025798;28;19913;-56
2021/03/11 02:23:33;;;;;;;13.02;8.05;;;-0.10;58.00;;;;;;5032453;28;20096;-54
2021/03/11 02:26:12;;;;;;;11.13;7.97;;;-0.10;58.20;;;;;;5024125;28;20026;-54
2021/03/11 02:28:54;;;;;;;11.95;8.32;;;0.00;58.20;;;;;;5029489;28;20385;-57
2021/03/11 02:31:21;;;;;;;15.38;8.98;;;0.00;58.20;;;;;;5030711;28;20029;-57
2021/03/11 02:33:50;;;;;;;12.07;7.97;;;-0.10;58.10;;;;;;5032408;28;20111;-55
2021/03/11 02:36:17;;;;;;;11.60;8.20;;;0.00;58.20;;;;;;5031569;28;20492;-56
2021/03/11 02:38:44;;;;;;;16.23;9.77;;;0.00;58.20;;;;;;5032287;28;20113;-56
2021/03/11 02:41:11;;;;;;;12.40;8.52;;;0.00;58.40;;;;;;5025322;28;20108;-57
2021/03/11 02:43:37;;;;;;;11.40;7.45;;;-0.10;58.20;;;;;;5026956;28;20462;-56
2021/03/11 02:46:03;;;;;;;15.23;9.48;;;-0.10;58.20;;;;;;5025345;28;20045;-54
2021/03/11 02:48:30;;;;;;;10.27;7.22;;;0.00;58.30;;;;;;5031365;28;20040;-55
2021/03/11 02:50:57;;;;;;;12.48;8.45;;;0.00;58.40;;;;;;5029279;28;20249;-54
2021/03/11 02:53:23;;;;;;;11.98;7.80;;;0.00;58.30;;;;;;5032504;28;20041;-53
2021/03/11 02:55:50;;;;;;;10.60;7.70;;;0.00;58.30;;;;;;5032242;28;20029;-54
2021/03/11 02:58:17;;;;;;;11.13;7.78;;;0.00;58.30;;;;;;5032050;28;20496;-52
2021/03/11 03:00:43;;;;;;;11.40;8.60;;;0.00;58.30;;;;;;5025573;28;20116;-53
2021/03/11 03:03:10;;;;;;;12.32;7.60;;;-0.10;58.40;;;;;;5032237;28;20021;-54
2021/03/11 03:05:38;;;;;;;11.10;8.00;;;0.00;58.40;;;;;;5028629;28;20026;-54
2021/03/11 03:08:04;;;;;;;14.10;8.98;;;-0.10;58.40;;;;;;5031108;28;20086;-54
2021/03/11 03:10:32;;;;;;;12.93;7.80;;;0.00;58.40;;;;;;5021174;28;20036;-57
2021/03/11 03:13:02;;;;;;;10.82;6.93;;;-0.10;58.40;;;;;;5026321;28;20104;-56
2021/03/11 03:15:29;;;;;;;14.73;8.75;;;0.00;58.40;;;;;;5030724;28;20126;-57
2021/03/11 03:17:56;;;;;;;11.27;7.70;;;0.00;58.30;;;;;;5032014;28;20053;-53
2021/03/11 03:20:23;;;;;;;12.50;8.27;;;0.00;58.30;;;;;;5031764;28;20487;-55
2021/03/11 03:22:52;;;;;;;12.73;8.35;;;-0.10;58.40;;;;;;5030216;28;20037;-54
2021/03/11 03:25:18;;;;;;;12.55;8.32;;;-0.10;58.50;;;;;;5030035;28;20476;-54
2021/03/11 03:27:44;;;;;;;13.63;8.60;;;-0.10;58.50;;;;;;5024425;28;20022;-53
2021/03/11 03:30:16;;;;;;;12.45;8.20;;;-0.10;58.50;;;;;;5029629;28;20033;-55
2021/03/11 03:32:41;;;;;;;12.00;8.10;;;-0.10;58.80;;;;;;5035684;28;20036;-55
2021/03/11 03:35:09;;;;;;;11.35;7.30;;;-0.10;58.50;;;;;;5035437;28;20037;-54
2021/03/11 03:37:36;;;;;;;13.27;8.00;;;-0.10;58.60;;;;;;5035370;28;20026;-54
2021/03/11 03:40:04;;;;;;;10.95;7.72;;;0.00;58.50;;;;;;5035277;28;20041;-53
2021/03/11 03:42:33;;;;;;;11.70;7.60;;;-0.10;58.40;;;;;;5021284;28;20104;-54
2021/03/11 03:45:02;;;;;;;12.75;7.15;;;-0.10;58.60;;;;;;5035129;28;20059;-53
2021/03/11 03:47:29;;;;;;;17.77;9.07;;;-0.10;58.70;;;;;;5034924;28;20468;-54
2021/03/11 03:49:57;;;;;;;11.30;7.55;;;0.00;58.70;;;;;;5034716;28;20124;-55
2021/03/11 03:52:25;;;;;;;13.88;8.13;;;0.00;58.60;;;;;;5031293;28;20040;-56
2021/03/11 03:54:51;;;;;;;10.52;7.38;;;0.00;58.70;;;;;;5034947;28;20021;-57
2021/03/11 03:57:21;;;;;;;11.95;8.15;;;0.00;58.80;;;;;;5035118;28;20061;-54
2021/03/11 03:59:50;;;;;;;10.45;7.47;;;0.10;58.80;;;;;;5031569;28;20073;-56
2021/03/11 04:02:17;;;;;;;11.20;8.25;;;0.00;58.60;;;;;;5032021;28;20108;-56
2021/03/11 04:04:47;;;;;;;11.57;8.57;;;0.10;58.60;;;;;;5033920;28;20045;-53
2021/03/11 04:07:24;;;;;;;11.68;8.25;;;0.10;58.60;;;;;;5035014;28;20465;-55
2021/03/11 04:09:52;;;;;;;12.55;8.10;;;0.10;58.90;;;;;;5034478;28;20079;-54
2021/03/11 04:12:19;;;;;;;11.05;7.35;;;0.10;58.80;;;;;;5028923;28;20072;-54
2021/03/11 04:14:46;;;;;;;11.15;7.30;;;0.10;58.80;;;;;;5033302;28;20529;-53
2021/03/11 04:17:13;;;;;;;11.85;7.75;;;0.10;58.90;;;;;;5035067;28;20068;-56
2021/03/11 04:19:40;;;;;;;10.63;8.07;;;0.10;59.00;;;;;;5034410;28;20041;-53
2021/03/11 04:22:07;;;;;;;12.25;7.18;;;0.10;58.80;;;;;;5033454;28;20033;-53
2021/03/11 04:24:34;;;;;;;8.88;6.32;;;0.10;58.80;;;;;;5033387;28;20389;-56
2021/03/11 04:27:05;;;;;;;11.00;8.15;;;0.00;58.60;;;;;;5034308;28;20029;-53
2021/03/11 04:29:31;;;;;;;14.25;8.82;;;-0.10;58.80;;;;;;5034592;28;20052;-53
2021/03/11 04:31:58;;;;;;;12.98;7.88;;;-0.10;59.20;;;;;;5034081;28;20038;-52
2021/03/11 04:34:24;;;;;;;11.85;8.00;;;-0.10;59.30;;;;;;5034266;28;20393;-54
2021/03/11 04:36:51;;;;;;;13.30;8.73;;;0.00;59.40;;;;;;5030815;28;20041;-53
2021/03/11 04:39:18;;;;;;;13.73;8.90;;;0.00;59.50;;;;;;5033591;28;20083;-57
2021/03/11 04:41:45;;;;;;;10.00;7.13;;;0.00;59.70;;;;;;5032667;28;20036;-54
2021/03/11 04:44:11;;;;;;;11.55;7.15;;;0.00;59.60;;;;;;5032129;28;20112;-55
2021/03/11 04:46:38;;;;;;;10.95;7.32;;;0.00;59.50;;;;;;5031506;28;20128;-53
2021/03/11 04:49:04;;;;;;;11.30;6.72;;;0.00;59.20;;;;;;5033191;28;20049;-54
2021/03/11 04:51:31;;;;;;;12.30;8.07;;;-0.10;59.30;;;;;;5065988;28;20025;-55
2021/03/11 04:53:57;;;;;;;11.45;6.20;;;-0.20;59.30;;;;;;5034191;28;20061;-54
2021/03/11 04:56:24;;;;;;;12.70;8.10;;;-0.20;59.60;;;;;;5033649;28;20021;-53
2021/03/11 04:58:50;;;;;;;12.93;7.90;;;-0.20;59.70;;;;;;5033880;28;20049;-56
2021/03/11 05:01:21;;;;;;;12.63;7.90;;;-0.20;59.90;;;;;;5026990;28;20049;-53
2021/03/11 05:03:48;;;;;;;11.88;7.57;;;-0.10;60.00;;;;;;5027661;28;20021;-54
2021/03/11 05:06:15;;;;;;;12.50;7.72;;;0.00;60.20;;;;;;5026221;28;20028;-53
2021/03/11 05:08:42;;;;;;;11.90;7.38;;;0.10;60.00;;;;;;5027911;28;20026;-56
2021/03/11 05:11:08;;;;;;;13.90;7.50;;;0.20;60.10;;;;;;5018836;28;20070;-53
2021/03/11 05:13:34;;;;;;;12.85;8.02;;;0.30;60.00;;;;;;5028569;28;20026;-53
2021/03/11 05:16:00;;;;;;;11.60;7.53;;;0.40;59.90;;;;;;5017667;28;20029;-55
2021/03/11 05:18:27;;;;;;;10.65;7.18;;;0.40;59.80;;;;;;5024421;28;20067;-56
2021/03/11 05:20:53;;;;;;;10.82;6.45;;;0.50;59.70;;;;;;5022491;28;20080;-57
2021/03/11 05:23:19;;;;;;;12.43;7.10;;;0.60;59.50;;;;;;5022280;28;20026;-57
2021/03/11 05:25:46;;;;;;;9.95;6.65;;;0.60;59.60;;;;;;5020627;28;20101;-56
2021/03/11 05:28:12;;;;;;;11.60;7.53;;;0.70;59.60;;;;;;5021465;28;20033;-56
2021/03/11 05:30:38;;;;;;;8.80;6.30;;;0.70;60.00;;;;;;5027520;28;20029;-53
2021/03/11 05:33:03;;;;;;;9.63;6.75;;;0.80;60.00;;;;;;5023929;28;20025;-57
2021/03/11 05:35:29;;;;;;;11.88;7.32;;;0.90;59.80;;;;;;5026577;28;20473;-53
2021/03/11 05:37:56;;;;;;;10.82;8.02;;;0.90;59.70;;;;;;5025648;28;20489;-57
2021/03/11 05:40:23;;;;;;;9.10;7.43;;;1.10;59.80;;;;;;5027740;28;20033;-54
2021/03/11 05:42:51;;;;;;;11.75;7.93;;;1.10;59.90;;;;;;5028312;28;20025;-53
2021/03/11 05:45:18;;;;;;;11.80;7.90;;;1.30;60.10;;;;;;5030444;28;20095;-53
2021/03/11 05:47:45;;;;;;;12.25;7.68;;;1.50;60.10;;;;;;5019279;28;20087;-53
2021/03/11 05:50:11;;;;;;;12.40;7.63;;;1.60;59.70;;;;;;5029724;28;20057;-52
2021/03/11 05:52:37;;;;;;;11.02;7.63;;;1.80;59.50;;;;;;5027656;28;20036;-55
2021/03/11 05:55:05;;;;;;;10.35;6.95;;;1.90;59.30;;;;;;5029921;28;20056;-57
2021/03/11 05:57:31;;;;;;;12.25;6.75;;;2.10;59.00;;;;;;5033139;28;20421;-55
2021/03/11 05:59:57;;;;;;;12.05;8.15;;;2.30;58.90;;;;;;5030818;28;20041;-56
2021/03/11 06:02:24;;;;;;;9.45;7.55;;;2.50;58.70;;;;;;5023658;28;20484;-56
2021/03/11 06:04:53;;;;;;;15.25;9.02;;;2.80;57.90;;;;;;5032725;28;20086;-57
2021/03/11 06:07:22;;;;;;;12.80;7.80;;;2.90;57.40;;;;;;5032512;28;20025;-53
2021/03/11 06:09:49;;;;;;;8.35;6.80;;;3.10;57.30;;;;;;5032403;28;20029;-53
2021/03/11 06:12:16;;;;;;;11.50;8.15;;;3.50;57.10;;;;;;5023669;28;20064;-53
2021/03/11 06:14:48;;;;;;;13.20;8.52;;;3.80;56.70;;;;;;5031406;28;20087;-54
2021/03/11 06:17:16;;;;;;;12.07;7.95;;;4.10;55.80;;;;;;5031613;28;20030;-56
2021/03/11 06:19:43;;;;;;;11.02;7.93;;;4.30;55.30;;;;;;5023460;28;20080;-55
2021/03/11 06:22:09;;;;;;;14.30;8.43;;;4.50;55.00;;;;;;5027145;28;20033;-55
2021/03/11 06:24:35;;;;;;;11.45;8.38;;;4.70;54.60;;;;;;5028251;28;20096;-53
2021/03/11 06:27:00;;;;;;;12.73;8.90;;;4.90;54.40;;;;;;5031908;28;20061;-54
2021/03/11 06:29:40;;;;;;;11.20;8.07;;;5.10;54.30;;;;;;5028247;28;20067;-56
2021/03/11 06:32:09;;;;;;;11.52;7.53;;;5.50;54.00;;;;;;5022930;28;20034;-54
2021/03/11 06:34:36;;;;;;;11.05;7.45;;;5.80;53.50;;;;;;5031550;28;20176;-57
2021/03/11 06:37:02;;;;;;;11.20;8.05;;;6.10;52.50;;;;;;5025042;28;20029;-57
2021/03/11 06:39:33;;;;;;;10.82;8.30;;;6.30;51.50;;;;;;5014877;28;20029;-56
2021/03/11 06:41:59;;;;;;;11.25;7.90;;;6.20;50.50;;;;;;5017947;28;20524;-58
2021/03/11 06:44:40;;;;;;;12.30;8.18;;;5.90;50.30;;;;;;5018226;28;20033;-57
2021/03/11 06:47:15;;;;;;;11.30;7.72;;;5.60;50.70;;;;;;5016563;28;20497;-57
2021/03/11 06:49:58;;;;;;;12.75;8.73;;;5.20;50.90;;;;;;5020675;28;20115;-58
2021/03/11 06:52:24;;;;;;;11.32;7.88;;;4.90;51.20;;;;;;5019023;28;20034;-57
2021/03/11 06:54:51;;;;;;;11.88;7.90;;;4.60;51.70;;;;;;5017954;28;20022;-53
2021/03/11 06:57:33;;;;;;;13.77;8.35;;;4.30;51.90;;;;;;5014335;28;20494;-56
2021/03/11 07:00:00;;;;;;;11.05;7.82;;;4.10;52.20;;;;;;5010007;28;20030;-54
2021/03/11 07:02:28;;;;;;;10.65;7.57;;;3.90;52.50;;;;;;5013613;28;20041;-57
2021/03/11 07:04:55;;;;;;;11.38;7.43;;;3.80;52.70;;;;;;5025120;28;20041;-55
2021/03/11 07:07:24;;;;;;;11.90;7.88;;;3.70;52.90;;;;;;5018292;28;20058;-54
2021/03/11 07:09:53;;;;;;;13.43;8.30;;;3.50;53.00;;;;;;5016108;28;20041;-58
2021/03/11 07:12:18;;;;;;;11.63;8.00;;;3.50;53.30;;;;;;5021752;28;20032;-56
2021/03/11 07:14:48;;;;;;;10.93;7.65;;;3.40;53.40;;;;;;5017091;28;20936;-54
2021/03/11 07:17:19;;;;;;;11.13;7.95;;;3.40;53.60;;;;;;5022492;28;20103;-56
2021/03/11 07:20:10;;;;;;;13.45;8.48;;;3.40;53.60;;;;;;5020771;28;20029;-54
2021/03/11 07:22:36;;;;;;;13.10;7.57;;;3.30;53.60;;;;;;5017489;28;20498;-54
2021/03/11 07:25:04;;;;;;;10.68;6.82;;;3.30;53.80;;;;;;5022671;28;20028;-57
2021/03/11 07:27:40;;;;;;;10.65;7.00;;;3.30;53.60;;;;;;5048443;28;20029;-55
2021/03/11 07:30:07;;;;;;;9.30;6.82;;;3.30;53.50;;;;;;5017949;28;20032;-55
2021/03/11 07:32:34;;;;;;;10.50;7.38;;;3.20;53.50;;;;;;5025129;28;20057;-54
2021/03/11 07:35:01;;;;;;;11.82;6.97;;;3.20;53.60;;;;;;5017506;28;20033;-57
2021/03/11 07:37:28;;;;;;;10.70;7.32;;;3.20;53.20;;;;;;5023952;28;20033;-56
2021/03/11 07:39:57;;;;;;;12.00;7.65;;;3.10;53.20;;;;;;5022973;28;20033;-57
2021/03/11 07:42:24;;;;;;;11.30;7.80;;;3.00;53.40;;;;;;5017692;28;20064;-55
2021/03/11 07:44:50;;;;;;;13.98;8.27;;;3.00;54.10;;;;;;5019114;28;20107;-56
2021/03/11 07:47:18;;;;;;;11.88;7.75;;;3.00;54.30;;;;;;5022953;28;20033;-57
2021/03/11 07:49:44;;;;;;;11.90;7.40;;;3.10;54.40;;;;;;5023922;28;20049;-57
2021/03/11 07:52:11;;;;;;;10.38;7.93;;;3.20;54.20;;;;;;5021656;28;20033;-56
2021/03/11 07:54:37;;;;;;;11.45;7.78;;;3.20;54.80;;;;;;5026439;28;20058;-56
2021/03/11 07:57:03;;;;;;;11.20;7.88;;;3.20;54.00;;;;;;5018579;28;20061;-57
2021/03/11 07:59:29;;;;;;;11.10;7.72;;;3.20;54.00;;;;;;5019282;28;20136;-56
2021/03/11 08:01:59;;;;;;;10.52;7.50;;;3.20;54.10;;;;;;5021120;28;20041;-54
2021/03/11 08:04:28;;;;;;;11.07;7.40;;;3.20;54.10;;;;;;5013697;28;20117;-56
2021/03/11 08:07:15;;;;;;;9.65;6.97;;;3.20;53.80;;;;;;5014712;28;20033;-56
2021/03/11 08:09:42;;;;;;;11.27;6.93;;;3.20;53.80;;;;;;5016279;28;20044;-56
2021/03/11 08:12:27;;;;;;;10.82;6.63;;;3.20;53.70;;;;;;5043993;28;20568;-56
2021/03/11 08:14:56;;;;;;;10.93;6.88;;;3.20;53.80;;;;;;5020942;28;20030;-56
2021/03/11 08:17:35;;;;;;;11.90;6.20;;;3.10;53.50;;;;;;5016998;28;20042;-56
2021/03/11 08:20:02;;;;;;;10.65;6.43;;;3.00;53.50;;;;;;5017183;28;20044;-53
2021/03/11 08:22:57;;;;;;;9.43;6.65;;;2.90;53.40;;;;;;5016018;28;20037;-53
2021/03/11 08:25:36;;;;;;;9.40;6.65;;;2.80;53.50;;;;;;5017077;28;20110;-57
2021/03/11 08:28:08;;;;;;;9.68;6.40;;;2.70;53.50;;;;;;5017158;28;20061;-54
2021/03/11 08:30:40;;;;;;;9.50;6.90;;;2.70;53.80;;;;;;5015866;28;20120;-56
2021/03/11 08:33:10;;;;;;;8.38;5.88;;;2.70;53.80;;;;;;5018534;28;20045;-57
2021/03/11 08:35:37;;;;;;;10.98;6.57;;;2.70;53.50;;;;;;5014947;28;20041;-53
2021/03/11 08:38:21;;;;;;;11.27;6.97;;;2.60;53.40;;;;;;5019138;28;20041;-56
2021/03/11 08:40:52;;;;;;;8.25;6.50;;;2.60;53.20;;;;;;5016384;28;20114;-53
2021/03/11 08:43:37;;;;;;;13.38;6.50;;;2.60;53.10;;;;;;5016888;28;20034;-51
2021/03/11 08:46:06;;;;;;;8.40;6.30;;;2.60;53.70;;;;;;5021807;28;20033;-54
2021/03/11 08:48:41;;;;;;;8.27;6.20;;;2.60;53.20;;;;;;5020047;28;20021;-56
2021/03/11 08:51:13;;;;;;;10.48;6.45;;;2.60;53.40;;;;;;5015025;28;20713;-54
2021/03/11 08:53:40;;;;;;;11.00;6.10;;;2.50;52.90;;;;;;5012518;28;20061;-55
2021/03/11 08:56:18;;;;;;;8.15;5.82;;;2.50;53.00;;;;;;5014500;28;20040;-52
2021/03/11 08:59:06;;;;;;;8.80;6.20;;;2.60;53.00;;;;;;5008205;28;20026;-55
2021/03/11 09:01:44;;;;;;;9.40;6.60;;;2.50;52.70;;;;;;5014014;28;20107;-56
2021/03/11 09:04:27;;;;;;;7.95;5.85;;;2.40;52.80;;;;;;5007517;28;20057;-55
2021/03/11 09:06:54;;;;;;;7.03;5.32;;;2.40;52.80;;;;;;5009293;28;20381;-55
2021/03/11 09:09:35;;;;;;;7.35;5.35;;;2.40;52.10;;;;;;5010571;28;20021;-56
2021/03/11 09:12:10;;;;;;;6.83;5.13;;;2.40;51.90;;;;;;5015847;28;20033;-57
2021/03/11 09:14:37;;;;;;;7.43;5.28;;;2.40;51.80;;;;;;5011145;28;20408;-52
2021/03/11 09:17:14;;;;;;;8.40;5.75;;;2.40;51.50;;;;;;5019284;28;20067;-53
2021/03/11 09:19:41;;;;;;;8.68;5.43;;;2.40;51.40;;;;;;5012302;28;20052;-57
2021/03/11 09:22:20;;;;;;;7.85;5.45;;;2.30;51.30;;;;;;5011324;28;20029;-55
2021/03/11 09:24:57;;;;;;;7.25;5.38;;;2.30;51.00;;;;;;5013147;28;20049;-54
2021/03/11 09:27:28;;;;;;;9.15;5.53;;;2.30;51.80;;;;;;5013908;28;20037;-55
2021/03/11 09:29:58;;;;;;;7.28;5.40;;;2.40;50.80;;;;;;5015509;28;20034;-53
2021/03/11 09:32:32;;;;;;;6.70;4.82;;;2.40;50.70;;;;;;5010492;28;20124;-54
2021/03/11 09:35:00;;;;;;;9.00;5.25;;;2.40;50.00;;;;;;5015053;28;20112;-54
2021/03/11 09:37:44;;;;;;;8.35;5.55;;;2.30;50.00;;;;;;5012632;28;21187;-51
2021/03/11 09:40:17;;;;;;;8.45;5.53;;;2.20;49.90;;;;;;5016477;28;20064;-50
2021/03/11 09:43:04;;;;;;;9.00;5.90;;;2.10;49.80;;;;;;5016487;28;20048;-53
2021/03/11 09:45:44;;;;;;;8.10;5.63;;;2.00;49.90;;;;;;5011911;28;20022;-54
2021/03/11 09:48:20;;;;;;;8.07;5.80;;;1.90;50.10;;;;;;5016043;28;20487;-50
2021/03/11 09:50:51;;;;;;;8.48;5.50;;;1.90;49.90;;;;;;5012635;28;20060;-55
2021/03/11 09:53:17;;;;;;;8.95;5.40;;;2.00;49.80;;;;;;5014640;28;20049;-53
2021/03/11 09:55:44;;;;;;;9.32;4.97;;;2.00;49.70;;;;;;5015289;28;20119;-53
2021/03/11 09:58:17;;;;;;;8.15;4.90;;;2.00;49.30;;;;;;5014036;28;20505;-54
2021/03/11 10:00:44;;;;;;;8.35;5.22;;;1.90;49.10;;;;;;5013616;28;20025;-55
2021/03/11 10:03:29;;;;;;;7.88;5.57;;;1.90;48.50;;;;;;5018395;28;20736;-53
2021/03/11 10:06:06;;;;;;;7.00;5.07;;;1.70;48.20;;;;;;5019061;28;20029;-55
2021/03/11 10:08:33;;;;;;;9.07;5.32;;;1.60;48.40;;;;;;5021032;28;20022;-55
2021/03/11 10:11:19;;;;;;;6.80;5.18;;;1.50;48.40;;;;;;5020002;28;20033;-55
2021/03/11 10:13:47;;;;;;;8.15;5.57;;;1.50;48.90;;;;;;5016688;28;20554;-55
2021/03/11 10:16:14;;;;;;;6.15;4.30;;;1.40;48.50;;;;;;5012179;28;20087;-55
2021/03/11 10:18:59;;;;;;;6.68;5.20;;;1.40;48.70;;;;;;5013110;28;20022;-56
2021/03/11 10:21:25;;;;;;;6.25;4.45;;;1.40;48.80;;;;;;5011383;28;20033;-57
2021/03/11 10:23:51;;;;;;;7.57;5.75;;;1.40;48.90;;;;;;5016859;28;20018;-55
2021/03/11 10:26:19;;;;;;;7.80;5.10;;;1.40;48.60;;;;;;5018590;28;20091;-56
2021/03/11 10:28:47;;;;;;;11.57;6.15;;;1.40;48.40;;;;;;5015822;28;20120;-57
2021/03/11 10:31:14;;;;;;;8.52;5.80;;;1.30;48.60;;;;;;5014956;28;20443;-57
2021/03/11 10:33:41;;;;;;;8.43;4.78;;;1.20;48.60;;;;;;5020296;28;20034;-57
2021/03/11 10:36:26;;;;;;;6.57;4.25;;;1.20;48.60;;;;;;5019038;28;20025;-57
2021/03/11 10:39:09;;;;;;;8.40;5.85;;;1.30;48.20;;;;;;5019514;28;20911;-57
2021/03/11 10:41:37;;;;;;;10.65;5.63;;;1.30;47.80;;;;;;5022012;28;20038;-54
2021/03/11 10:44:13;;;;;;;7.35;5.05;;;1.30;48.10;;;;;;5020830;28;20091;-54
2021/03/11 10:46:40;;;;;;;7.50;4.90;;;1.30;48.80;;;;;;5017773;28;20025;-54
2021/03/11 10:49:07;;;;;;;6.97;5.15;;;1.20;47.90;;;;;;5016281;28;20112;-56
2021/03/11 10:51:33;;;;;;;6.13;5.03;;;1.20;47.80;;;;;;5023916;28;20501;-56
2021/03/11 10:53:59;;;;;;;9.70;5.63;;;1.10;47.80;;;;;;5024711;28;20079;-57
2021/03/11 10:56:26;;;;;;;6.05;4.80;;;1.00;47.50;;;;;;5017778;28;20110;-56
2021/03/11 10:59:10;;;;;;;7.18;4.93;;;1.00;47.80;;;;;;5020510;28;20045;-56
2021/03/11 11:01:40;;;;;;;8.30;5.43;;;1.00;47.90;;;;;;5013167;28;20086;-57
2021/03/11 11:04:06;;;;;;;8.68;5.78;;;1.00;47.90;;;;;;5022492;28;20034;-57
2021/03/11 11:06:32;;;;;;;10.48;5.10;;;0.90;48.10;;;;;;5019276;28;20032;-56
2021/03/11 11:08:58;;;;;;;5.82;4.70;;;0.90;48.00;;;;;;5018870;28;20080;-57
2021/03/11 11:11:24;;;;;;;7.28;4.95;;;0.90;48.10;;;;;;5012643;28;20057;-54
2021/03/11 11:13:50;;;;;;;7.40;4.78;;;0.90;48.00;;;;;;5015522;28;20038;-56
2021/03/11 11:16:17;;;;;;;7.28;4.57;;;0.90;48.10;;;;;;5013798;28;20030;-57
2021/03/11 11:18:43;;;;;;;6.95;4.57;;;0.90;48.30;;;;;;5015647;28;20030;-56
2021/03/11 11:21:10;;;;;;;5.40;4.10;;;0.90;48.40;;;;;;5016698;28;20039;-55
2021/03/11 11:23:35;;;;;;;4.93;4.05;;;0.90;48.10;;;;;;5015383;28;20059;-54
2021/03/11 11:26:01;;;;;;;5.85;4.25;;;0.90;48.30;;;;;;5021070;28;20026;-54
2021/03/11 11:28:27;;;;;;;5.13;4.43;;;1.00;48.60;;;;;;5023529;28;20103;-51
2021/03/11 11:30:53;;;;;;;5.15;3.90;;;1.00;48.60;;;;;;5019319;28;20030;-51
2021/03/11 11:33:19;;;;;;;7.85;4.78;;;1.00;48.60;;;;;;5016177;28;20026;-56
2021/03/11 11:35:45;;;;;;;5.85;4.28;;;1.00;48.60;;;;;;5016557;28;20087;-55
2021/03/11 11:38:11;;;;;;;5.28;4.03;;;1.10;49.20;;;;;;5017150;28;20049;-56
2021/03/11 11:40:37;;;;;;;6.25;4.80;;;1.10;48.40;;;;;;5024766;28;20033;-57
2021/03/11 11:43:03;;;;;;;7.80;4.80;;;1.20;48.70;;;;;;5016664;28;20033;-56
2021/03/11 11:45:30;;;;;;;5.93;4.45;;;1.10;48.20;;;;;;5016050;28;21578;-53
2021/03/11 11:47:56;;;;;;;6.57;4.80;;;1.10;48.10;;;;;;5015106;28;20894;-56
2021/03/11 11:50:22;;;;;;;7.60;5.05;;;1.10;47.90;;;;;;5014938;28;20163;-56
2021/03/11 11:52:47;;;;;;;7.40;4.80;;;1.10;48.20;;;;;;5015137;28;20024;-56
2021/03/11 11:55:13;;;;;;;8.10;5.35;;;1.10;48.30;;;;;;5017070;28;20064;-56
2021/03/11 11:57:40;;;;;;;6.85;4.75;;;1.10;48.60;;;;;;5018598;28;20030;-54
2021/03/11 12:00:10;;;;;;;8.13;4.57;;;1.20;48.80;;;;;;5010724;28;20029;-54
2021/03/11 12:02:36;;;;;;;5.65;4.70;;;1.20;48.40;;;;;;5015411;28;20140;-58
2021/03/11 12:05:03;;;;;;;8.85;5.20;;;1.20;48.20;;;;;;5015109;28;20029;-57
2021/03/11 12:07:29;;;;;;;6.90;4.93;;;1.10;48.30;;;;;;5021141;28;20555;-55
2021/03/11 12:09:55;;;;;;;5.38;3.80;;;1.10;48.50;;;;;;5019118;28;20041;-55
2021/03/11 12:12:21;;;;;;;6.97;4.32;;;1.10;49.00;;;;;;5010524;28;20029;-56
2021/03/11 12:14:46;;;;;;;6.15;4.13;;;1.10;47.90;;;;;;5006439;28;20033;-56
2021/03/11 12:17:12;;;;;;;7.28;4.35;;;1.10;48.00;;;;;;5008841;28;20044;-56
2021/03/11 12:19:38;;;;;;;7.03;4.18;;;1.10;47.50;;;;;;5010692;28;20551;-56
2021/03/11 12:22:04;;;;;;;5.68;4.53;;;1.20;47.60;;;;;;5011837;28;20470;-56
2021/03/11 12:24:30;;;;;;;6.18;4.57;;;1.10;47.80;;;;;;5014157;28;20055;-56
2021/03/11 12:26:56;;;;;;;6.90;4.28;;;1.10;47.80;;;;;;5017233;28;20037;-57
2021/03/11 12:29:22;;;;;;;7.55;4.70;;;1.10;48.30;;;;;;5011496;28;20382;-54
2021/03/11 12:31:48;;;;;;;8.73;5.10;;;1.20;48.30;;;;;;5010266;28;20385;-54
2021/03/11 12:34:15;;;;;;;6.78;4.47;;;1.20;48.20;;;;;;5014558;28;20138;-53
2021/03/11 12:36:41;;;;;;;5.90;4.30;;;1.20;48.40;;;;;;4996638;28;20123;-55
2021/03/11 12:39:08;;;;;;;6.30;4.45;;;1.20;48.90;;;;;;5015948;28;20469;-56
2021/03/11 12:41:34;;;;;;;6.38;5.05;;;1.20;49.10;;;;;;5015203;28;20039;-55
2021/03/11 12:44:01;;;;;;;6.32;4.80;;;1.20;48.90;;;;;;5014391;28;20124;-55
2021/03/11 12:46:26;;;;;;;7.28;4.70;;;1.20;49.00;;;;;;5016555;28;20021;-55
2021/03/11 12:48:52;;;;;;;6.53;4.40;;;1.30;49.40;;;;;;5011648;28;20033;-55
2021/03/11 12:51:20;;;;;;;7.60;4.10;;;1.40;49.60;;;;;;5013632;28;20037;-55
2021/03/11 12:59:20;;;;;;;5.80;3.78;;;1.40;48.70;;;;;;5029580;28;20130;-53
2021/03/11 13:01:46;;;;;;;6.60;4.45;;;1.40;49.00;;;;;;5032897;28;20037;-54
2021/03/11 13:04:11;;;;;;;7.50;4.53;;;1.40;48.90;;;;;;5030496;28;20037;-53